Eitzen, Minnesota
Current Conditions -  °F | °C
As of 2:55 PM on Thursday 20 Nov 2014 (Local Time) from KDEH Reporting Station
Clear Clear  
Wind Chill:   Ceiling: Unl
Heat Index: 18°   Visibility: 10mi
Dew Point:   Wind: 14mph
Humidity: 58%   Direction: 310°NW
Pressure: 30.13"   Gusts: 20mph
Location:  43.51°N, 91.46°W
Report Text: KDEH 202055Z AUTO 31012G17KT 10SM CLR M08/M15 A3013 RMK AO2
Loading
Personal Weather Stations






























Interactive Weather Map New forecast layout! Learn more

10-Day Weather Forecast

Advertisements
Track Severe Weather on mobile